createdAt,value
2018-07-25T00:01:08.564Z,25.30
2018-07-25T00:03:36.875Z,25.30
2018-07-25T00:06:05.179Z,25.40
2018-07-25T00:11:01.541Z,25.50
2018-07-25T00:13:29.866Z,25.50
2018-07-25T00:15:58.192Z,25.50
2018-07-25T00:18:26.546Z,25.50
2018-07-25T00:20:54.800Z,25.50
2018-07-25T00:23:23.120Z,25.60
2018-07-25T00:25:51.417Z,25.50
2018-07-25T00:28:19.722Z,25.50
2018-07-25T00:30:48.039Z,25.50
2018-07-25T00:33:16.442Z,25.60
2018-07-25T00:35:44.747Z,25.60
2018-07-25T00:38:13.054Z,25.60
2018-07-25T00:40:41.351Z,25.60
2018-07-25T00:43:09.655Z,25.60
2018-07-25T00:45:37.938Z,25.60
2018-07-25T00:48:06.264Z,25.60
2018-07-25T00:50:34.571Z,25.60
2018-07-25T00:53:02.872Z,25.60
2018-07-25T00:55:31.231Z,25.60
2018-07-25T00:57:59.588Z,25.70
2018-07-25T01:00:27.873Z,25.60
2018-07-25T01:02:56.179Z,25.60
2018-07-25T01:05:24.478Z,25.70
2018-07-25T01:07:52.819Z,25.60
2018-07-25T01:10:21.104Z,25.70
2018-07-25T01:12:49.402Z,25.70
2018-07-25T01:15:17.711Z,25.70
2018-07-25T01:17:46.018Z,25.70
2018-07-25T01:20:14.379Z,25.70
2018-07-25T01:22:42.678Z,25.70
2018-07-25T01:25:10.994Z,25.70
2018-07-25T01:27:39.306Z,25.70
2018-07-25T01:30:08.575Z,25.70
2018-07-25T01:32:36.891Z,25.70
2018-07-25T01:35:05.177Z,25.70
2018-07-25T01:37:33.541Z,25.70
2018-07-25T01:40:01.834Z,25.70
2018-07-25T01:42:30.143Z,25.70
2018-07-25T01:44:58.430Z,25.70
2018-07-25T01:47:27.343Z,25.70
2018-07-25T01:49:55.650Z,25.70
2018-07-25T01:52:23.974Z,25.70
2018-07-25T01:57:20.478Z,25.70
2018-07-25T01:59:48.855Z,25.70
2018-07-25T02:02:17.194Z,25.70
2018-07-25T02:04:45.494Z,25.70
2018-07-25T02:07:13.858Z,25.70
2018-07-25T02:09:42.191Z,25.70
2018-07-25T02:12:10.582Z,25.70
2018-07-25T02:14:38.903Z,25.70
2018-07-25T02:17:07.198Z,25.70
2018-07-25T02:19:35.587Z,25.70
2018-07-25T02:22:03.818Z,25.70
2018-07-25T02:24:32.202Z,25.70
2018-07-25T02:27:00.490Z,25.70
2018-07-25T02:29:28.812Z,25.70
2018-07-25T02:31:57.116Z,25.70
2018-07-25T02:34:25.416Z,25.70
2018-07-25T02:36:53.756Z,25.70
2018-07-25T02:39:22.062Z,25.70
2018-07-25T02:41:50.407Z,25.70
2018-07-25T02:44:18.708Z,25.70
2018-07-25T02:46:47.019Z,25.70
2018-07-25T02:49:15.403Z,25.70
2018-07-25T02:51:43.709Z,25.70
2018-07-25T02:54:12.006Z,25.80
2018-07-25T02:56:40.348Z,25.80
2018-07-25T02:59:08.628Z,25.70
2018-07-25T03:01:36.927Z,25.80
2018-07-25T03:04:05.210Z,25.80
2018-07-25T03:06:33.513Z,25.70
2018-07-25T03:09:01.866Z,25.70
2018-07-25T03:11:30.091Z,25.80
2018-07-25T03:13:58.460Z,25.70
2018-07-25T03:16:26.751Z,25.70
2018-07-25T03:18:55.057Z,25.80
2018-07-25T03:21:23.355Z,25.80
2018-07-25T03:23:51.658Z,25.80
2018-07-25T03:26:19.976Z,25.80
2018-07-25T03:28:48.322Z,25.80
2018-07-25T03:31:16.898Z,25.80
2018-07-25T03:33:45.120Z,25.80
2018-07-25T03:36:13.446Z,25.80
2018-07-25T03:38:41.735Z,25.70
2018-07-25T03:41:10.047Z,25.80
2018-07-25T03:43:38.338Z,25.70
2018-07-25T03:46:06.678Z,25.80
2018-07-25T03:48:34.995Z,25.80
2018-07-25T03:51:03.285Z,25.80
2018-07-25T03:53:31.610Z,25.70
2018-07-25T03:55:59.905Z,25.70
2018-07-25T03:58:28.226Z,25.80
2018-07-25T04:03:24.564Z,25.70
2018-07-25T04:05:52.883Z,25.70
2018-07-25T04:08:21.241Z,25.70
2018-07-25T04:10:50.098Z,25.70
2018-07-25T04:13:19.374Z,25.70
2018-07-25T04:15:47.869Z,25.70
2018-07-25T04:18:16.194Z,25.80
2018-07-25T04:20:44.498Z,25.70
2018-07-25T04:23:12.802Z,25.70
2018-07-25T04:28:09.145Z,25.70
2018-07-25T04:30:37.480Z,25.70
2018-07-25T04:33:05.983Z,25.70
2018-07-25T04:35:34.290Z,25.70
2018-07-25T04:38:02.582Z,25.70
2018-07-25T04:40:30.893Z,25.80
2018-07-25T04:42:59.287Z,25.70
2018-07-25T04:45:27.587Z,25.70
2018-07-25T04:47:55.870Z,25.70
2018-07-25T04:50:24.174Z,25.70
2018-07-25T04:52:52.703Z,25.70
2018-07-25T04:55:21.025Z,25.70
2018-07-25T04:57:49.706Z,25.70
2018-07-25T05:00:18.231Z,25.70
2018-07-25T05:02:46.544Z,25.70
2018-07-25T05:05:14.842Z,25.70
2018-07-25T05:07:43.135Z,25.80
2018-07-25T05:10:11.446Z,25.80
2018-07-25T05:12:39.862Z,25.80
2018-07-25T05:15:08.153Z,25.80
2018-07-25T05:17:36.439Z,25.80
2018-07-25T05:20:04.893Z,25.80
2018-07-25T05:22:33.208Z,25.80
2018-07-25T05:27:29.628Z,25.80
2018-07-25T05:29:57.932Z,25.80
2018-07-25T05:32:26.231Z,25.80
2018-07-25T05:34:54.526Z,25.80
2018-07-25T05:37:22.839Z,25.70
2018-07-25T05:39:51.126Z,25.80
2018-07-25T05:42:19.437Z,25.70
2018-07-25T05:44:47.743Z,25.60
2018-07-25T05:47:16.058Z,25.40
2018-07-25T05:49:44.350Z,25.30
2018-07-25T05:52:12.646Z,25.20
2018-07-25T05:54:41.057Z,25.10
2018-07-25T05:57:09.432Z,25.00
2018-07-25T05:59:37.795Z,25.10
2018-07-25T06:02:06.178Z,25.10
2018-07-25T06:04:34.487Z,25.20
2018-07-25T06:07:02.881Z,25.10
2018-07-25T06:11:59.385Z,25.00
2018-07-25T06:14:27.689Z,25.00
2018-07-25T06:16:56.611Z,25.00
2018-07-25T06:19:24.972Z,25.00
2018-07-25T06:21:53.323Z,24.90
2018-07-25T06:24:21.699Z,24.90
2018-07-25T06:26:50.076Z,25.00
2018-07-25T06:29:18.436Z,25.00
2018-07-25T06:31:46.751Z,25.10
2018-07-25T06:34:15.093Z,25.00
2018-07-25T06:36:43.464Z,25.00
2018-07-25T06:39:13.168Z,25.00
2018-07-25T06:41:41.599Z,25.00
2018-07-25T06:44:10.300Z,25.00
2018-07-25T06:46:38.890Z,25.00
2018-07-25T06:49:08.105Z,25.00
2018-07-25T06:51:36.664Z,25.00
2018-07-25T06:56:33.082Z,25.00
2018-07-25T06:59:01.417Z,25.00
2018-07-25T07:01:30.061Z,25.00
2018-07-25T07:03:58.390Z,25.00
2018-07-25T07:06:26.682Z,25.00
2018-07-25T07:08:55.035Z,25.10
2018-07-25T07:11:23.803Z,25.10
2018-07-25T07:13:52.276Z,25.10
2018-07-25T07:16:20.604Z,25.10
2018-07-25T07:18:48.978Z,25.10
2018-07-25T07:21:17.434Z,25.10
2018-07-25T07:23:45.766Z,25.10
2018-07-25T07:26:14.064Z,25.10
2018-07-25T07:28:42.374Z,25.10
2018-07-25T07:31:10.822Z,25.20
2018-07-25T07:33:39.124Z,25.10
2018-07-25T07:38:35.615Z,25.10
2018-07-25T07:41:03.954Z,25.10
2018-07-25T07:43:32.271Z,25.10
2018-07-25T07:46:00.712Z,25.10
2018-07-25T07:48:29.006Z,25.10
2018-07-25T07:50:57.346Z,25.10
2018-07-25T07:53:25.672Z,25.00
2018-07-25T07:55:54.003Z,25.10
2018-07-25T07:58:22.291Z,25.10
2018-07-25T08:03:18.668Z,25.10
2018-07-25T08:05:47.441Z,25.10
2018-07-25T08:08:15.747Z,25.10
2018-07-25T08:10:44.224Z,25.20
2018-07-25T08:13:12.397Z,25.20
2018-07-25T08:15:40.722Z,25.20
2018-07-25T08:18:09.029Z,25.20
2018-07-25T08:20:37.487Z,25.20
2018-07-25T08:23:05.791Z,25.20
2018-07-25T08:25:34.483Z,25.20
2018-07-25T08:28:02.746Z,25.20
2018-07-25T08:30:31.082Z,25.20
2018-07-25T08:32:59.430Z,25.30
2018-07-25T08:35:27.736Z,25.30
2018-07-25T08:37:56.049Z,25.30
2018-07-25T08:40:24.355Z,25.30
2018-07-25T08:42:52.663Z,25.30
2018-07-25T08:45:20.969Z,25.40
2018-07-25T08:47:49.278Z,25.30
2018-07-25T08:50:17.594Z,25.30
2018-07-25T08:52:45.961Z,25.40
2018-07-25T08:55:14.258Z,25.40
2018-07-25T08:57:42.613Z,25.40
2018-07-25T09:00:10.898Z,25.40
2018-07-25T09:02:39.218Z,25.40
2018-07-25T09:05:07.515Z,25.40
2018-07-25T09:07:35.883Z,25.40
2018-07-25T09:10:04.355Z,25.40
2018-07-25T09:12:32.720Z,25.50
2018-07-25T09:15:00.987Z,25.50
2018-07-25T09:17:29.312Z,25.50
2018-07-25T09:19:57.618Z,25.50
2018-07-25T09:22:25.917Z,25.60
2018-07-25T09:24:54.202Z,25.60
2018-07-25T09:27:22.518Z,25.60
2018-07-25T09:29:50.794Z,25.60
2018-07-25T09:32:19.110Z,25.70
2018-07-25T09:34:47.410Z,25.80
2018-07-25T09:37:15.705Z,25.70
2018-07-25T09:39:44.016Z,25.80
2018-07-25T09:42:14.022Z,25.80
2018-07-25T09:44:42.317Z,25.90
2018-07-25T09:47:10.667Z,26.00
2018-07-25T09:49:38.973Z,26.00
2018-07-25T09:52:07.302Z,26.00
2018-07-25T09:54:35.619Z,26.00
2018-07-25T09:59:32.050Z,26.00
2018-07-25T10:02:00.403Z,26.00
2018-07-25T10:06:56.801Z,26.00
2018-07-25T10:09:25.191Z,26.00
2018-07-25T10:11:53.521Z,26.00
2018-07-25T10:14:21.828Z,26.00
2018-07-25T10:16:50.155Z,26.00
2018-07-25T10:19:18.428Z,26.00
2018-07-25T10:21:46.773Z,26.00
2018-07-25T10:24:15.059Z,26.00
2018-07-25T10:26:43.390Z,26.00
2018-07-25T10:29:11.776Z,26.10
2018-07-25T10:31:40.070Z,26.10
2018-07-25T10:34:08.607Z,26.00
2018-07-25T10:36:37.482Z,26.10
2018-07-25T10:39:07.284Z,26.10
2018-07-25T10:41:35.797Z,26.10
2018-07-25T10:44:04.266Z,26.10
2018-07-25T10:46:32.561Z,26.10
2018-07-25T10:49:00.892Z,26.10
2018-07-25T10:51:29.196Z,26.10
2018-07-25T10:53:57.537Z,26.10
2018-07-25T10:56:26.065Z,26.10
2018-07-25T10:58:54.387Z,26.10
2018-07-25T11:01:22.697Z,26.10
2018-07-25T11:03:51.044Z,26.10
2018-07-25T11:06:19.489Z,26.10
2018-07-25T11:08:48.160Z,26.10
2018-07-25T11:11:16.572Z,26.10
2018-07-25T11:13:44.866Z,26.10
2018-07-25T11:16:13.299Z,26.10
2018-07-25T11:18:41.706Z,26.10
2018-07-25T11:21:10.080Z,26.10
2018-07-25T11:23:38.533Z,26.10
2018-07-25T11:26:06.842Z,26.10
2018-07-25T11:31:03.358Z,26.10
2018-07-25T11:33:31.835Z,26.10
2018-07-25T11:36:00.153Z,26.10
2018-07-25T11:38:28.462Z,26.10
2018-07-25T11:40:56.775Z,26.10
2018-07-25T11:43:25.112Z,26.10
2018-07-25T11:45:53.411Z,26.10
2018-07-25T11:48:21.699Z,26.10
2018-07-25T11:50:50.004Z,26.10
2018-07-25T11:53:18.349Z,26.10
2018-07-25T11:55:46.673Z,26.10
2018-07-25T11:58:14.939Z,26.10
2018-07-25T12:00:43.246Z,26.10
2018-07-25T12:03:11.603Z,26.10
2018-07-25T12:05:39.920Z,26.10
2018-07-25T12:08:08.235Z,26.10
2018-07-25T12:13:04.777Z,26.20
2018-07-25T12:18:01.155Z,26.20
2018-07-25T12:20:29.524Z,26.20
2018-07-25T12:22:57.824Z,26.20
2018-07-25T12:25:26.224Z,26.20
2018-07-25T12:27:54.858Z,26.20
2018-07-25T12:30:23.200Z,26.20
2018-07-25T12:32:51.862Z,26.20
2018-07-25T12:35:20.213Z,26.20
2018-07-25T12:37:48.556Z,26.20
2018-07-25T12:40:16.897Z,26.20
2018-07-25T12:42:45.294Z,26.20
2018-07-25T12:45:14.375Z,26.20
2018-07-25T12:47:43.127Z,26.30
2018-07-25T12:52:39.980Z,26.30
2018-07-25T12:55:08.342Z,26.30
2018-07-25T12:57:36.674Z,26.30
2018-07-25T13:00:06.650Z,26.30
2018-07-25T13:02:35.011Z,26.30
2018-07-25T13:05:03.369Z,26.40
2018-07-25T13:07:31.702Z,26.40
2018-07-25T13:10:00.044Z,26.40
2018-07-25T13:12:28.389Z,26.40
2018-07-25T13:14:56.744Z,26.50
2018-07-25T13:19:53.171Z,26.50
2018-07-25T13:22:22.456Z,26.50
2018-07-25T13:24:50.836Z,26.50
2018-07-25T13:27:19.199Z,26.50
2018-07-25T13:29:47.534Z,26.50
2018-07-25T13:32:15.957Z,26.50
2018-07-25T13:34:44.275Z,26.50
2018-07-25T13:37:12.620Z,26.50
2018-07-25T13:39:41.006Z,26.50
2018-07-25T13:42:09.338Z,26.50
2018-07-25T13:44:37.695Z,26.50
2018-07-25T13:49:34.459Z,26.50
2018-07-25T13:52:02.829Z,26.50
2018-07-25T13:54:31.412Z,26.50
2018-07-25T13:56:59.733Z,26.50
2018-07-25T13:59:28.323Z,26.50
2018-07-25T14:01:56.707Z,26.50
2018-07-25T14:04:25.050Z,26.50
2018-07-25T14:06:53.371Z,26.50
2018-07-25T14:09:21.757Z,26.50
2018-07-25T14:11:50.151Z,26.60
2018-07-25T14:14:18.504Z,26.60
2018-07-25T14:16:46.821Z,26.50
2018-07-25T14:19:15.185Z,26.60
2018-07-25T14:21:43.535Z,26.60
2018-07-25T14:24:11.882Z,26.60
2018-07-25T14:26:40.207Z,26.60
2018-07-25T14:29:08.692Z,26.60
2018-07-25T14:31:36.903Z,26.60
2018-07-25T14:34:05.249Z,26.60
2018-07-25T14:36:33.564Z,26.60
2018-07-25T14:39:01.900Z,26.60
2018-07-25T14:41:30.230Z,26.60
2018-07-25T14:43:58.657Z,26.60
2018-07-25T14:46:26.994Z,26.60
2018-07-25T14:48:55.411Z,26.60
2018-07-25T14:51:23.831Z,26.70
2018-07-25T14:53:52.087Z,26.60
2018-07-25T14:56:20.732Z,26.60
2018-07-25T14:58:49.075Z,26.60
2018-07-25T15:01:17.505Z,26.60
2018-07-25T15:03:46.029Z,26.60
2018-07-25T15:06:14.368Z,26.70
2018-07-25T15:08:42.714Z,26.60
2018-07-25T15:11:11.030Z,26.70
2018-07-25T15:13:39.351Z,26.70
2018-07-25T15:16:07.697Z,26.70
2018-07-25T15:18:36.038Z,26.70
2018-07-25T15:21:04.353Z,26.70
2018-07-25T15:23:44.509Z,26.70
2018-07-25T15:26:12.686Z,26.70
2018-07-25T15:28:41.029Z,26.70
2018-07-25T15:31:09.359Z,26.70
2018-07-25T15:33:37.676Z,26.70
2018-07-25T15:36:06.016Z,26.70
2018-07-25T15:38:34.324Z,26.70
2018-07-25T15:41:02.637Z,26.70
2018-07-25T15:43:30.952Z,26.70
2018-07-25T15:45:59.280Z,26.70
2018-07-25T15:48:27.603Z,26.70
2018-07-25T15:50:56.011Z,26.80
2018-07-25T15:53:24.403Z,26.80
2018-07-25T15:55:52.731Z,26.80
2018-07-25T16:00:49.094Z,26.90
2018-07-25T16:03:17.419Z,26.90
2018-07-25T16:05:45.746Z,26.90
2018-07-25T16:08:14.074Z,26.80
2018-07-25T16:10:42.415Z,26.80
2018-07-25T16:13:10.788Z,26.80
2018-07-25T16:15:39.165Z,26.90
2018-07-25T16:18:07.625Z,26.80
2018-07-25T16:23:04.071Z,26.90
2018-07-25T16:25:32.403Z,26.90
2018-07-25T16:28:00.800Z,26.90
2018-07-25T16:30:29.144Z,26.90
2018-07-25T16:32:57.538Z,26.90
2018-07-25T16:35:25.884Z,26.90
2018-07-25T16:37:54.342Z,26.80
2018-07-25T16:42:50.891Z,26.80
2018-07-25T16:45:19.211Z,26.80
2018-07-25T16:47:47.642Z,26.80
2018-07-25T16:50:15.927Z,26.80
2018-07-25T16:52:44.285Z,26.80
2018-07-25T16:55:12.606Z,26.80
2018-07-25T16:57:40.934Z,26.80
2018-07-25T17:00:09.302Z,26.80
2018-07-25T17:02:37.689Z,26.80
2018-07-25T17:05:06.015Z,26.80
2018-07-25T17:07:34.357Z,26.80
2018-07-25T17:10:02.718Z,26.80
2018-07-25T17:12:31.103Z,26.80
2018-07-25T17:14:59.447Z,26.80
2018-07-25T17:17:27.792Z,26.90
2018-07-25T17:19:56.148Z,26.90
2018-07-25T17:22:24.501Z,26.90
2018-07-25T17:24:52.798Z,26.90
2018-07-25T17:27:21.207Z,26.90
2018-07-25T17:29:49.993Z,26.90
2018-07-25T17:32:18.318Z,26.90
2018-07-25T17:34:46.659Z,26.80
2018-07-25T17:37:14.979Z,26.90
2018-07-25T17:39:43.643Z,26.80
2018-07-25T17:42:11.951Z,26.90
2018-07-25T17:44:40.277Z,26.90
2018-07-25T17:47:08.827Z,26.90
2018-07-25T17:49:37.172Z,26.90
2018-07-25T17:52:05.901Z,26.90
2018-07-25T17:54:34.518Z,26.90
2018-07-25T17:57:02.844Z,26.90
2018-07-25T17:59:31.176Z,26.90
2018-07-25T18:01:59.502Z,26.80
2018-07-25T18:04:27.850Z,26.90
2018-07-25T18:06:56.281Z,26.90
2018-07-25T18:09:24.590Z,26.90
2018-07-25T18:11:53.024Z,26.90
2018-07-25T18:14:21.468Z,26.90
2018-07-25T18:16:49.907Z,26.90
2018-07-25T18:19:18.522Z,26.90
2018-07-25T18:21:47.154Z,26.90
2018-07-25T18:24:15.521Z,26.80
2018-07-25T18:26:44.211Z,26.90
2018-07-25T18:29:12.627Z,26.80
2018-07-25T18:34:09.229Z,26.90
2018-07-25T18:36:37.581Z,26.90
2018-07-25T18:39:08.727Z,26.90
2018-07-25T18:41:37.612Z,26.90
2018-07-25T18:44:06.476Z,26.90
2018-07-25T18:46:35.134Z,26.90
2018-07-25T18:49:04.026Z,26.90
2018-07-25T18:51:32.812Z,26.90
2018-07-25T18:54:01.498Z,26.90
2018-07-25T18:56:30.288Z,26.90
2018-07-25T18:58:58.973Z,26.80
2018-07-25T19:01:27.658Z,26.90
2018-07-25T19:06:24.172Z,26.80
2018-07-25T19:08:53.001Z,26.80
2018-07-25T19:11:21.779Z,26.80
2018-07-25T19:13:55.780Z,26.80
2018-07-25T19:16:24.448Z,26.80
2018-07-25T19:18:53.163Z,26.80
2018-07-25T19:21:21.561Z,26.80
2018-07-25T19:23:50.363Z,26.70
2018-07-25T19:26:18.812Z,26.70
2018-07-25T19:28:47.138Z,26.70
2018-07-25T19:31:16.191Z,26.70
2018-07-25T19:33:44.986Z,26.80
2018-07-25T19:36:14.088Z,26.70
2018-07-25T19:38:42.839Z,26.60
2018-07-25T19:41:11.632Z,26.60
2018-07-25T19:43:40.024Z,26.60
2018-07-25T19:46:08.437Z,26.60
2018-07-25T19:48:37.407Z,26.60
2018-07-25T19:51:05.740Z,26.60
2018-07-25T19:53:34.366Z,26.60
2018-07-25T19:56:03.054Z,26.50
2018-07-25T19:58:31.948Z,26.50
2018-07-25T20:01:00.880Z,26.50
2018-07-25T20:03:29.561Z,26.50
2018-07-25T20:05:58.616Z,26.50
2018-07-25T20:08:27.301Z,26.50
2018-07-25T20:10:56.885Z,26.50
2018-07-25T20:13:25.524Z,26.50
2018-07-25T20:15:57.162Z,26.50
2018-07-25T20:18:26.247Z,26.50
2018-07-25T20:23:23.752Z,26.50
2018-07-25T20:25:52.403Z,26.50
2018-07-25T20:28:20.735Z,26.50
2018-07-25T20:30:49.444Z,26.40
2018-07-25T20:33:18.360Z,26.40
2018-07-25T20:35:47.233Z,26.50
2018-07-25T20:38:15.714Z,26.40
2018-07-25T20:40:44.644Z,26.40
2018-07-25T20:43:13.571Z,26.40
2018-07-25T20:45:42.529Z,26.40
2018-07-25T20:48:11.469Z,26.40
2018-07-25T20:50:40.626Z,26.40
2018-07-25T20:53:10.201Z,26.40
2018-07-25T20:55:39.532Z,26.40
2018-07-25T20:58:08.121Z,26.30
2018-07-25T21:00:36.872Z,26.30
2018-07-25T21:03:06.929Z,26.30
2018-07-25T21:05:35.848Z,26.30
2018-07-25T21:08:05.147Z,26.30
2018-07-25T21:10:34.012Z,26.20
2018-07-25T21:13:03.106Z,26.20
2018-07-25T21:15:31.553Z,26.20
2018-07-25T21:17:59.908Z,26.20
2018-07-25T21:20:28.283Z,26.20
2018-07-25T21:22:56.679Z,26.30
2018-07-25T21:25:25.874Z,26.30
2018-07-25T21:27:55.032Z,26.20
2018-07-25T21:30:23.491Z,26.20
2018-07-25T21:32:52.083Z,26.20
2018-07-25T21:35:20.517Z,26.20
2018-07-25T21:37:49.013Z,26.20
2018-07-25T21:40:17.521Z,26.20
2018-07-25T21:42:45.859Z,26.20
2018-07-25T21:45:14.409Z,26.20
2018-07-25T21:47:42.994Z,26.20
2018-07-25T21:50:11.548Z,26.20
2018-07-25T21:52:39.974Z,26.20
2018-07-25T21:55:08.386Z,26.10
2018-07-25T21:57:36.907Z,26.20
2018-07-25T22:00:09.430Z,26.20
2018-07-25T22:02:37.918Z,26.10
2018-07-25T22:05:06.458Z,26.10
2018-07-25T22:07:35.140Z,26.10
2018-07-25T22:10:03.586Z,26.20
2018-07-25T22:12:32.293Z,26.10
2018-07-25T22:15:01.010Z,26.10
2018-07-25T22:17:29.534Z,26.10
2018-07-25T22:19:58.119Z,26.00
2018-07-25T22:22:26.724Z,26.00
2018-07-25T22:24:55.203Z,26.10
2018-07-25T22:27:23.676Z,26.00
2018-07-25T22:29:52.122Z,26.00
2018-07-25T22:32:20.566Z,26.00
2018-07-25T22:34:48.899Z,26.10
2018-07-25T22:37:17.242Z,26.00
2018-07-25T22:39:45.925Z,26.00
2018-07-25T22:42:14.223Z,26.00
2018-07-25T22:44:42.547Z,26.00
2018-07-25T22:47:10.942Z,26.00
2018-07-25T22:49:39.268Z,25.90
2018-07-25T22:52:07.609Z,25.90
2018-07-25T22:54:35.908Z,25.90
2018-07-25T22:57:04.215Z,25.90
2018-07-25T22:59:32.499Z,25.90
2018-07-25T23:02:00.859Z,25.90
2018-07-25T23:04:29.494Z,25.90
2018-07-25T23:06:57.831Z,25.80
2018-07-25T23:09:26.140Z,25.80
2018-07-25T23:11:54.482Z,25.80
2018-07-25T23:14:22.943Z,25.80
2018-07-25T23:16:51.255Z,25.80
2018-07-25T23:19:19.547Z,25.80
2018-07-25T23:26:44.534Z,25.80
2018-07-25T23:29:12.839Z,25.80
2018-07-25T23:31:41.374Z,25.70
2018-07-25T23:34:09.706Z,25.70
2018-07-25T23:36:38.016Z,25.70
2018-07-25T23:39:07.882Z,25.70
2018-07-25T23:41:36.202Z,25.70
2018-07-25T23:44:04.583Z,25.70
2018-07-25T23:46:32.925Z,25.70
2018-07-25T23:49:01.208Z,25.60
2018-07-25T23:51:29.513Z,25.70
2018-07-25T23:53:57.812Z,25.70
2018-07-25T23:56:26.184Z,25.60
2018-07-25T23:58:54.703Z,25.60
